world map with PUZ marked

PUZ - Airport

This information may not be accurate or current and is not valid for navigation or flight planning. No warranty of fitness for any purpose is made or implied.

flag of Nicaragua

Donate via PayPal

Additional information is available on the NEW Great Circle Mapper

Location
City:  Puerto Cabezas, Atlántico Norte, Nicaragua
ICAO / IATA:MNPC / PUZ

Details
Type:Airport (Aerodrome, Airfield)
Latitude:14°02'50"N (14.047194)
Longitude:83°23'12"W (-83.386721)
Datum:WGS 1984
Elevation:69 ft (21 m)
Runways:1
Longest:8130 × 167 ft (2478 × 51 m)

Time
Timezone:UTC+28:08 (DST+30:08)
Local Time:

Weather
METAR:MNPC  041400Z 31004KT 7000 BKN016 24/23 Q1013 HZ
TAF:MNPC  (expired)

Related Locations
Nearby:
Farthest:CCK: 12301 mi / 19797 km
West Island (Pulau Panjang) [Cocos (Keeling) Islands], CC

Find:

   beyond  
but within

Other Information
Maps:
Sources:

  


 


Great Circle Mapper   Great Circle Mapper
Great Circle Mapper FAQ   Great Circle Mapper FAQ
  Karl's Home Page
KLS˛   KLS˛ Home
   GC on Facebook
Airlines of the World   Airlines of the World
Donate via PayPal


Copyright © 2004-2019, Karl L. Swartz. All rights reserved.
All trademarks mentioned herein belong to their respective owners.

Please see credits for attribution and copyright information.

Karl Swartz <karl@kls2.com>
  Powered by FreeBSD
Valid HTML 4.01!
Labeled with ICRA
hCard Microformat
Geo Microformat